Time;durP1;ratioP1;P1;durP2;ratioP2;P2;SDS_P1;SDS_P2;PMS_P1;PMS_P2;Temp;Humidity;BMP_temperature;BMP_pressure;BME280_temperature;BME280_humidity;BME280_pressure;Samples;Min_cycle;Max_cycle;Signal;HPM_P1;HPM_P2
2024/03/27 00:00:38;;;;;;;8.75;5.18;;;;;;;9.51;65.51;97547.28;2464658;28;20070;-81
2024/03/27 00:01:51;;;;;;;7.63;6.07;;;;;;;9.51;65.46;97544.69;2462930;28;20024;-82
2024/03/27 00:03:04;;;;;;;8.82;6.07;;;;;;;9.50;65.40;97546.44;2475137;28;20036;-80
2024/03/27 00:04:18;;;;;;;8.52;6.63;;;;;;;9.50;65.43;97533.44;2469043;28;20497;-82
2024/03/27 00:05:31;;;;;;;11.40;6.10;;;;;;;9.52;65.29;97546.34;2470345;28;20024;-82
2024/03/27 00:06:44;;;;;;;9.02;5.75;;;;;;;9.52;65.56;97538.53;2456559;28;20028;-81
2024/03/27 00:07:59;;;;;;;11.32;6.00;;;;;;;9.52;65.31;97528.97;2463285;28;20378;-81
2024/03/27 00:09:13;;;;;;;5.72;4.57;;;;;;;9.53;65.42;97530.66;2470789;28;20082;-81
2024/03/27 00:10:27;;;;;;;7.57;5.03;;;;;;;9.53;65.89;97533.25;2464327;28;20040;-81
2024/03/27 00:11:40;;;;;;;7.82;5.47;;;;;;;9.54;65.65;97519.31;2461340;28;20037;-81
2024/03/27 00:12:54;;;;;;;7.03;4.28;;;;;;;9.55;65.60;97521.00;2475080;28;20030;-82
2024/03/27 00:14:07;;;;;;;7.38;5.75;;;;;;;9.55;65.94;97518.41;2477263;28;20036;-82
2024/03/27 00:15:20;;;;;;;8.13;5.85;;;;;;;9.57;65.77;97521.72;2471701;28;20038;-81
2024/03/27 00:16:34;;;;;;;14.43;8.07;;;;;;;9.57;65.53;97526.09;2465970;28;20028;-82
2024/03/27 00:17:47;;;;;;;11.80;5.78;;;;;;;9.58;65.54;97515.63;2465281;28;20040;-81
2024/03/27 00:19:00;;;;;;;8.30;5.90;;;;;;;9.60;65.36;97516.38;2472031;28;20114;-80
2024/03/27 00:20:13;;;;;;;7.85;6.72;;;;;;;9.63;65.53;97509.31;2472165;28;20189;-82
2024/03/27 00:21:27;;;;;;;11.50;6.53;;;;;;;9.64;65.17;97517.03;2458578;28;20035;-82
2024/03/27 00:22:40;;;;;;;9.23;5.95;;;;;;;9.66;65.19;97515.19;2460985;28;20152;-81
2024/03/27 00:23:53;;;;;;;8.75;5.95;;;;;;;9.66;64.94;97509.16;2458298;28;20040;-82
2024/03/27 00:25:07;;;;;;;11.15;6.57;;;;;;;9.67;64.86;97516.03;2470611;28;20036;-82
2024/03/27 00:26:21;;;;;;;8.90;5.88;;;;;;;9.66;65.06;97517.81;2468585;28;20074;-82
2024/03/27 00:27:35;;;;;;;7.97;5.72;;;;;;;9.67;64.96;97513.44;2472610;28;20429;-81
2024/03/27 00:28:48;;;;;;;5.88;5.38;;;;;;;9.67;65.01;97505.63;2472887;28;20031;-82
2024/03/27 00:30:03;;;;;;;7.22;6.28;;;;;;;9.66;65.01;97507.41;2465216;28;20144;-82
2024/03/27 00:31:16;;;;;;;11.80;6.85;;;;;;;9.67;65.21;97505.63;2467311;28;20127;-81
2024/03/27 00:32:29;;;;;;;7.38;6.05;;;;;;;9.67;65.24;97500.41;2473226;28;20039;-82
2024/03/27 00:33:42;;;;;;;7.72;5.75;;;;;;;9.68;65.51;97496.88;2473791;28;20082;-83
2024/03/27 00:34:56;;;;;;;10.93;6.05;;;;;;;9.67;65.43;97495.22;2468350;28;20035;-81
2024/03/27 00:36:09;;;;;;;10.57;6.00;;;;;;;9.66;65.80;97493.53;2459871;28;20032;-81
2024/03/27 00:37:22;;;;;;;11.95;5.82;;;;;;;9.64;66.09;97490.19;2471472;28;20102;-82
2024/03/27 00:38:36;;;;;;;11.07;6.20;;;;;;;9.60;66.13;97485.16;2465558;28;20055;-83
2024/03/27 00:39:50;;;;;;;7.57;6.78;;;;;;;9.59;66.39;97487.81;2470645;28;20498;-82
2024/03/27 00:41:03;;;;;;;11.48;6.20;;;;;;;9.58;66.42;97487.00;2476060;28;20110;-82
2024/03/27 00:42:16;;;;;;;12.68;7.70;;;;;;;9.58;66.17;97486.16;2469366;28;20473;-82
2024/03/27 00:43:29;;;;;;;7.30;5.47;;;;;;;9.58;66.26;97488.75;2472959;28;20039;-82
2024/03/27 00:44:43;;;;;;;8.07;6.50;;;;;;;9.58;66.22;97487.00;2462030;28;20060;-82
2024/03/27 00:45:56;;;;;;;17.92;7.45;;;;;;;9.56;66.07;97483.63;2464264;28;20111;-81
2024/03/27 00:47:10;;;;;;;7.53;6.72;;;;;;;9.56;66.02;97475.81;2471117;28;20029;-82
2024/03/27 00:48:23;;;;;;;8.07;6.70;;;;;;;9.56;66.02;97477.59;2470476;28;20032;-82
2024/03/27 00:49:36;;;;;;;9.80;6.80;;;;;;;9.56;66.06;97470.59;2468671;28;20078;-82
2024/03/27 00:50:50;;;;;;;9.43;6.93;;;;;;;9.58;65.75;97473.13;2470818;28;20044;-81
2024/03/27 00:52:03;;;;;;;10.63;7.55;;;;;;;9.60;65.46;97469.53;2463681;28;20050;-81
2024/03/27 00:53:16;;;;;;;13.55;8.05;;;;;;;9.62;65.46;97469.41;2461190;28;20020;-81
2024/03/27 00:54:30;;;;;;;8.73;6.88;;;;;;;9.64;65.04;97464.97;2468898;28;20432;-81
2024/03/27 00:55:53;;;;;;;11.27;6.80;;;;;;;9.68;65.10;97460.41;2467783;28;20087;-82
2024/03/27 00:57:06;;;;;;;8.60;6.28;;;;;;;9.70;64.70;97471.59;2467971;28;20032;-82
2024/03/27 00:58:20;;;;;;;8.52;6.63;;;;;;;9.71;64.59;97468.09;2465980;28;20058;-82
2024/03/27 00:59:33;;;;;;;7.68;6.45;;;;;;;9.72;64.59;97470.59;2469698;28;20040;-80
2024/03/27 01:00:46;;;;;;;10.10;7.03;;;;;;;9.73;64.59;97461.00;2471908;28;20026;-82
2024/03/27 01:02:00;;;;;;;9.48;6.72;;;;;;;9.77;64.29;97449.50;2470520;28;20079;-82
2024/03/27 01:03:13;;;;;;;13.70;9.00;;;;;;;9.76;64.20;97451.28;2466151;28;20059;-81
2024/03/27 01:04:27;;;;;;;9.13;6.22;;;;;;;9.77;64.29;97444.28;2470093;28;20066;-83
2024/03/27 01:05:40;;;;;;;11.65;6.35;;;;;;;9.78;64.02;97444.22;2466696;28;20024;-82
2024/03/27 01:06:53;;;;;;;7.95;6.75;;;;;;;9.79;63.97;97434.63;2468035;28;20074;-81
2024/03/27 01:08:07;;;;;;;10.10;6.45;;;;;;;9.79;63.72;97440.69;2466751;28;20042;-81
2024/03/27 01:09:20;;;;;;;6.68;5.85;;;;;;;9.79;63.53;97434.63;2464041;28;20047;-82
2024/03/27 01:10:35;;;;;;;10.35;6.07;;;;;;;9.79;63.24;97426.81;2463638;28;20024;-83
2024/03/27 01:11:48;;;;;;;10.00;7.07;;;;;;;9.78;63.23;97425.13;2459280;28;20505;-82
2024/03/27 01:13:02;;;;;;;8.60;6.13;;;;;;;9.77;63.27;97423.47;2472519;28;20035;-83
2024/03/27 01:14:16;;;;;;;9.38;6.30;;;;;;;9.76;63.17;97421.78;2457733;28;20043;-82
2024/03/27 01:15:29;;;;;;;9.05;7.22;;;;;;;9.75;63.38;97420.09;2469666;28;20071;-82
2024/03/27 01:16:43;;;;;;;13.27;6.80;;;;;;;9.72;63.22;97415.06;2472556;28;20032;-83
2024/03/27 01:17:56;;;;;;;9.68;6.72;;;;;;;9.71;63.22;97418.59;2473466;28;20149;-83
2024/03/27 01:19:10;;;;;;;18.05;6.75;;;;;;;9.68;63.27;97405.75;2471084;28;20482;-82
2024/03/27 01:20:23;;;;;;;10.82;7.72;;;;;;;9.65;63.32;97408.53;2471215;28;20493;-83
2024/03/27 01:21:36;;;;;;;8.30;6.85;;;;;;;9.63;63.50;97408.63;2457633;28;20075;-82
2024/03/27 01:22:49;;;;;;;8.02;6.75;;;;;;;9.59;63.94;97420.13;2463739;28;20039;-82
2024/03/27 01:24:03;;;;;;;9.65;5.70;;;;;;;9.55;64.39;97414.28;2463684;28;20494;-82
2024/03/27 01:25:16;;;;;;;14.10;7.05;;;;;;;9.51;64.66;97412.75;2469167;28;20111;-83
2024/03/27 01:26:30;;;;;;;8.70;7.45;;;;;;;9.44;64.74;97411.41;2475853;28;20017;-83
2024/03/27 01:27:43;;;;;;;9.43;7.30;;;;;;;9.38;65.01;97403.94;2472623;28;20044;-83
2024/03/27 01:28:56;;;;;;;8.93;6.88;;;;;;;9.29;65.33;97400.09;2463254;28;20086;-82
2024/03/27 01:30:10;;;;;;;10.45;6.38;;;;;;;9.22;65.46;97405.75;2463264;28;20020;-83
2024/03/27 01:31:23;;;;;;;8.52;6.18;;;;;;;9.16;65.38;97406.88;2457794;28;20068;-84
2024/03/27 01:32:36;;;;;;;12.68;8.85;;;;;;;9.10;65.38;97413.28;2482186;28;20498;-84
2024/03/27 01:33:49;;;;;;;8.27;7.45;;;;;;;9.04;66.00;97423.19;2471995;28;20032;-82
2024/03/27 01:35:03;;;;;;;6.68;6.05;;;;;;;8.98;66.25;97428.69;2481110;28;20047;-83
2024/03/27 01:36:17;;;;;;;10.35;5.95;;;;;;;8.93;66.61;97426.34;2461534;28;20617;-82
2024/03/27 01:37:30;;;;;;;6.85;6.05;;;;;;;8.88;66.46;97431.81;2457151;28;20086;-83
2024/03/27 01:38:45;;;;;;;6.85;6.18;;;;;;;8.83;66.71;97436.41;2472433;28;20020;-84
2024/03/27 01:39:58;;;;;;;12.05;5.68;;;;;;;8.79;66.63;97429.69;2472551;28;20060;-83
2024/03/27 01:41:12;;;;;;;8.93;6.45;;;;;;;8.78;66.67;97434.94;2468668;28;20036;-83
2024/03/27 01:42:25;;;;;;;10.27;6.80;;;;;;;8.75;66.96;97441.16;2469051;28;20022;-83
2024/03/27 01:43:38;;;;;;;7.72;5.47;;;;;;;8.71;66.83;97444.84;2461703;28;20048;-83
2024/03/27 01:44:51;;;;;;;10.25;5.93;;;;;;;8.66;67.44;97445.09;2468575;28;20036;-83
2024/03/27 01:46:08;;;;;;;7.38;6.25;;;;;;;8.62;67.38;97446.19;2468023;28;20044;-83
2024/03/27 01:47:21;;;;;;;9.25;7.82;;;;;;;8.57;67.33;97442.13;2468629;28;20063;-82
2024/03/27 01:48:35;;;;;;;8.77;6.22;;;;;;;8.57;67.26;97437.78;2472376;28;21659;-83
2024/03/27 01:49:48;;;;;;;8.60;6.35;;;;;;;8.57;67.21;97439.53;2471703;28;21438;-83
2024/03/27 01:51:03;;;;;;;7.35;5.13;;;;;;;8.55;67.25;97434.41;2468647;28;20101;-83
2024/03/27 01:52:16;;;;;;;10.55;6.10;;;;;;;8.54;67.43;97440.53;2472127;28;20024;-83
2024/03/27 01:53:30;;;;;;;8.73;6.38;;;;;;;8.54;67.50;97437.09;2466659;28;20497;-84
2024/03/27 01:54:44;;;;;;;8.50;5.30;;;;;;;8.51;67.95;97440.69;2470174;28;20485;-83
2024/03/27 01:55:57;;;;;;;6.63;5.70;;;;;;;8.47;67.77;97445.22;2458676;28;20048;-83
2024/03/27 01:57:10;;;;;;;7.35;6.32;;;;;;;8.46;67.92;97445.28;2469110;28;20567;-81
2024/03/27 01:58:24;;;;;;;8.07;5.47;;;;;;;8.45;67.91;97447.03;2483793;28;21315;-81
2024/03/27 01:59:37;;;;;;;8.55;7.35;;;;;;;8.45;68.17;97446.22;2463282;28;20032;-80
2024/03/27 02:00:51;;;;;;;10.20;6.32;;;;;;;8.44;67.81;97444.50;2469341;28;20509;-79
2024/03/27 02:02:04;;;;;;;11.48;5.45;;;;;;;8.44;67.89;97444.50;2475491;28;20603;-80
2024/03/27 02:03:18;;;;;;;8.50;5.47;;;;;;;8.43;68.14;97442.84;2478008;28;20060;-82
2024/03/27 02:04:31;;;;;;;10.48;6.50;;;;;;;8.46;67.68;97445.28;2471419;28;20094;-81
2024/03/27 02:05:45;;;;;;;7.38;6.32;;;;;;;8.48;67.93;97457.28;2473514;28;20027;-81
2024/03/27 02:06:59;;;;;;;8.75;5.05;;;;;;;8.52;67.55;97450.19;2459149;28;20375;-82
2024/03/27 02:08:12;;;;;;;12.13;5.80;;;;;;;8.54;67.40;97453.50;2511286;28;20128;-80
2024/03/27 02:09:26;;;;;;;7.15;5.63;;;;;;;8.58;67.38;97462.84;2473773;29;20024;-81
2024/03/27 02:10:39;;;;;;;8.25;5.93;;;;;;;8.60;67.51;97470.56;2477016;28;20116;-82
2024/03/27 02:11:52;;;;;;;8.82;6.20;;;;;;;8.61;67.35;97464.44;2514136;28;20507;-81
2024/03/27 02:13:06;;;;;;;10.45;6.53;;;;;;;8.63;67.41;97473.84;2481872;28;20464;-81
2024/03/27 02:14:19;;;;;;;8.98;5.38;;;;;;;8.64;67.38;97470.31;2513173;28;20059;-81
2024/03/27 02:15:32;;;;;;;10.55;5.97;;;;;;;8.65;67.41;97472.00;2456774;28;20525;-82
2024/03/27 02:16:46;;;;;;;7.95;6.55;;;;;;;8.68;67.44;97473.63;2492082;28;20028;-81
2024/03/27 02:17:59;;;;;;;8.35;6.45;;;;;;;8.69;67.37;97475.28;2472558;28;20032;-81
2024/03/27 02:19:12;;;;;;;8.45;5.75;;;;;;;8.68;67.30;97476.22;2500905;28;20026;-81
2024/03/27 02:20:26;;;;;;;6.95;5.22;;;;;;;8.67;67.60;97469.31;2480433;28;20030;-81
2024/03/27 02:21:39;;;;;;;6.38;4.97;;;;;;;8.65;67.72;97464.22;2499440;28;20040;-81
2024/03/27 02:22:55;;;;;;;7.20;5.05;;;;;;;8.66;67.61;97465.06;2504299;28;20072;-81
2024/03/27 02:24:32;;;;;;;8.15;6.18;;;;;;;8.65;67.71;97452.97;2481319;28;20556;-81
2024/03/27 02:26:15;;;;;;;10.32;5.55;;;;;;;8.63;67.85;97447.84;2505199;28;20034;-81
2024/03/27 02:27:28;;;;;;;6.88;5.03;;;;;;;8.61;67.57;97446.25;2465232;29;20535;-81
2024/03/27 02:28:45;;;;;;;9.20;7.15;;;;;;;8.60;67.71;97441.97;2490672;28;20033;-81
2024/03/27 02:29:58;;;;;;;9.82;5.93;;;;;;;8.57;67.53;97434.31;2483943;28;20039;-81
2024/03/27 02:31:11;;;;;;;8.95;5.85;;;;;;;8.56;67.76;97428.28;2516536;28;20029;-80
2024/03/27 02:32:25;;;;;;;10.32;4.93;;;;;;;8.55;68.10;97424.03;2479779;29;20070;-81
2024/03/27 02:33:38;;;;;;;7.90;6.10;;;;;;;8.55;68.13;97429.22;2494555;28;20025;-81
2024/03/27 02:34:51;;;;;;;11.13;5.50;;;;;;;8.55;68.14;97426.63;2492234;28;20052;-80
2024/03/27 02:36:04;;;;;;;6.75;5.63;;;;;;;8.52;68.19;97416.41;2511979;28;20048;-82
2024/03/27 02:37:18;;;;;;;6.13;4.78;;;;;;;8.50;68.10;97416.47;2481226;28;20035;-81
2024/03/27 02:38:31;;;;;;;8.85;6.30;;;;;;;8.51;68.28;97419.88;2510211;28;20434;-81
2024/03/27 02:39:44;;;;;;;7.85;6.22;;;;;;;8.49;68.40;97419.13;2499577;28;20033;-82
2024/03/27 02:40:58;;;;;;;11.30;5.18;;;;;;;8.46;68.37;97414.94;2504269;28;20062;-81
2024/03/27 02:42:11;;;;;;;6.00;5.40;;;;;;;8.42;68.32;97410.00;2507977;28;20078;-81
2024/03/27 02:43:24;;;;;;;8.65;5.50;;;;;;;8.40;68.55;97411.81;2486020;28;20086;-81
2024/03/27 02:44:37;;;;;;;7.93;5.05;;;;;;;8.38;68.60;97403.22;2503343;28;20048;-82
2024/03/27 02:45:50;;;;;;;8.52;6.43;;;;;;;8.33;68.54;97402.63;2473743;28;20020;-82
2024/03/27 02:47:04;;;;;;;9.60;5.78;;;;;;;8.27;68.75;97402.03;2474491;28;20028;-81
2024/03/27 02:48:18;;;;;;;7.18;4.55;;;;;;;8.23;68.74;97410.03;2515114;28;20061;-81
2024/03/27 02:49:31;;;;;;;9.40;7.07;;;;;;;8.17;68.85;97418.16;2467771;29;20035;-80
2024/03/27 02:50:44;;;;;;;8.82;4.60;;;;;;;8.08;68.90;97419.47;2476272;29;20024;-82
2024/03/27 02:51:57;;;;;;;8.57;5.63;;;;;;;7.99;69.23;97417.31;2474064;28;20039;-81
2024/03/27 02:53:10;;;;;;;6.35;5.72;;;;;;;7.88;69.01;97410.06;2508230;28;20105;-82
2024/03/27 02:54:24;;;;;;;6.68;6.07;;;;;;;7.78;69.13;97407.09;2506739;28;20537;-82
2024/03/27 02:55:37;;;;;;;7.63;4.78;;;;;;;7.71;69.80;97407.47;2487952;28;20847;-83
2024/03/27 02:56:50;;;;;;;12.18;5.07;;;;;;;7.62;69.71;97399.22;2494703;28;20448;-82
2024/03/27 02:58:03;;;;;;;8.18;5.22;;;;;;;7.57;69.79;97397.75;2477412;29;20087;-83
2024/03/27 02:59:17;;;;;;;7.05;5.18;;;;;;;7.49;69.53;97389.53;2480132;28;20114;-82
2024/03/27 03:00:36;;;;;;;7.88;5.63;;;;;;;7.42;70.38;97383.78;2509823;28;20070;-83
2024/03/27 03:01:50;;;;;;;6.53;5.22;;;;;;;7.34;70.30;97376.34;2470537;29;20397;-82
2024/03/27 03:03:03;;;;;;;5.65;5.07;;;;;;;7.28;70.70;97378.38;2514245;28;20073;-81
2024/03/27 03:04:16;;;;;;;8.48;5.25;;;;;;;7.22;70.91;97366.56;2473690;28;20025;-81
2024/03/27 03:05:30;;;;;;;6.60;4.97;;;;;;;7.18;70.91;97357.25;2512368;28;20033;-82
2024/03/27 03:06:43;;;;;;;12.65;5.43;;;;;;;7.14;71.23;97353.13;2507971;28;20054;-82
2024/03/27 03:07:56;;;;;;;7.15;5.47;;;;;;;7.10;71.34;97351.56;2507051;28;20515;-82
2024/03/27 03:09:09;;;;;;;5.68;4.95;;;;;;;7.07;71.32;97347.38;2515961;28;20180;-81
2024/03/27 03:10:23;;;;;;;6.90;6.18;;;;;;;7.03;71.37;97347.63;2500553;28;20414;-82
2024/03/27 03:11:36;;;;;;;10.73;5.82;;;;;;;6.99;71.60;97337.38;2486217;28;20469;-82
2024/03/27 03:12:49;;;;;;;9.80;5.85;;;;;;;6.94;71.77;97333.31;2496548;28;20523;-81
2024/03/27 03:14:03;;;;;;;6.90;6.03;;;;;;;6.86;71.83;97331.06;2513806;28;20478;-82
2024/03/27 03:15:16;;;;;;;6.00;5.40;;;;;;;6.78;71.93;97318.47;2468022;28;20060;-83
2024/03/27 03:16:29;;;;;;;6.03;5.18;;;;;;;6.72;72.05;97323.97;2475431;28;20081;-82
2024/03/27 03:17:43;;;;;;;13.02;5.43;;;;;;;6.67;72.24;97323.34;2489678;28;20052;-82
2024/03/27 03:18:56;;;;;;;10.05;5.88;;;;;;;6.63;72.46;97313.16;2474094;29;20047;-82
2024/03/27 03:20:12;;;;;;;6.60;5.75;;;;;;;6.60;72.54;97310.72;2523271;28;20426;-82
2024/03/27 03:21:25;;;;;;;8.57;4.95;;;;;;;6.55;72.55;97303.16;2481051;28;20032;-81
2024/03/27 03:22:38;;;;;;;11.23;4.82;;;;;;;6.51;72.70;97299.06;2511433;28;20102;-82
2024/03/27 03:23:52;;;;;;;6.25;5.25;;;;;;;6.45;72.93;97304.50;2483054;29;20506;-82
2024/03/27 03:25:05;;;;;;;7.78;5.75;;;;;;;6.40;72.95;97302.13;2511549;28;20040;-82
2024/03/27 03:26:18;;;;;;;12.30;6.55;;;;;;;6.37;72.96;97310.03;2483453;28;20107;-82
2024/03/27 03:27:32;;;;;;;8.85;5.47;;;;;;;6.33;73.33;97311.09;2508987;28;20032;-82
2024/03/27 03:28:46;;;;;;;7.50;5.18;;;;;;;6.28;73.33;97307.84;2477552;28;20030;-82
2024/03/27 03:29:59;;;;;;;10.32;5.75;;;;;;;6.27;73.52;97311.34;2498018;28;20483;-81
2024/03/27 03:31:17;;;;;;;9.48;5.55;;;;;;;6.25;73.57;97308.00;2466947;29;20087;-82
2024/03/27 03:32:30;;;;;;;8.35;5.53;;;;;;;6.22;73.78;97303.81;2479894;29;20023;-82
2024/03/27 03:33:43;;;;;;;11.00;5.57;;;;;;;6.19;73.76;97295.31;2496630;28;20104;-82
2024/03/27 03:34:57;;;;;;;9.75;6.10;;;;;;;6.17;73.96;97286.75;2514939;28;20046;-83
2024/03/27 03:36:11;;;;;;;9.30;5.80;;;;;;;6.14;74.11;97289.50;2507516;28;20097;-82
2024/03/27 03:37:24;;;;;;;7.43;5.50;;;;;;;6.13;74.27;97287.84;2460735;28;20025;-81
2024/03/27 03:38:37;;;;;;;9.07;6.28;;;;;;;6.09;74.50;97290.56;2471654;28;20036;-80
2024/03/27 03:39:51;;;;;;;7.57;5.65;;;;;;;6.07;74.23;97287.19;2477078;28;20035;-83
2024/03/27 03:41:06;;;;;;;5.95;5.05;;;;;;;6.05;74.43;97280.41;2489841;28;20098;-83
2024/03/27 03:42:20;;;;;;;10.63;5.80;;;;;;;6.02;74.40;97278.78;2471204;28;20029;-81
2024/03/27 03:43:33;;;;;;;8.18;5.43;;;;;;;6.00;74.51;97275.44;2502127;28;20040;-81
2024/03/27 03:44:46;;;;;;;10.85;5.47;;;;;;;5.97;74.56;97278.16;2473180;28;20558;-82
2024/03/27 03:46:00;;;;;;;8.88;5.90;;;;;;;5.96;75.01;97276.44;2487515;28;20461;-83
2024/03/27 03:47:13;;;;;;;7.38;5.80;;;;;;;5.94;74.79;97280.88;2492342;28;20383;-82
2024/03/27 03:48:26;;;;;;;10.32;6.07;;;;;;;5.94;74.96;97277.44;2485260;28;20027;-83
2024/03/27 03:49:40;;;;;;;10.95;6.75;;;;;;;5.94;75.35;97282.59;2510024;28;20022;-81
2024/03/27 03:50:53;;;;;;;8.45;6.20;;;;;;;5.94;75.15;97296.41;2485606;28;20024;-81
2024/03/27 03:52:06;;;;;;;17.40;6.90;;;;;;;5.92;75.42;97305.13;2485882;28;20032;-81
2024/03/27 03:53:19;;;;;;;8.88;5.60;;;;;;;5.90;75.34;97306.00;2483283;28;20035;-82
2024/03/27 03:54:33;;;;;;;9.15;7.28;;;;;;;5.86;75.44;97312.25;2511981;28;20079;-81
2024/03/27 03:55:46;;;;;;;6.80;5.72;;;;;;;5.81;75.15;97321.13;2467398;29;20032;-82
2024/03/27 03:56:59;;;;;;;7.28;6.32;;;;;;;5.78;75.61;97336.75;2470746;28;20035;-82
2024/03/27 03:58:13;;;;;;;8.73;6.05;;;;;;;5.76;75.59;97336.00;2509898;28;20542;-82
2024/03/27 03:59:26;;;;;;;8.35;5.72;;;;;;;5.76;75.64;97343.75;2475274;28;20028;-82
2024/03/27 04:00:39;;;;;;;10.60;5.93;;;;;;;5.76;75.75;97343.75;2476753;29;20028;-81
2024/03/27 04:01:52;;;;;;;13.90;5.88;;;;;;;5.77;75.81;97348.84;2476995;29;20051;-82
2024/03/27 04:03:06;;;;;;;8.85;5.25;;;;;;;5.78;76.00;97347.97;2476466;28;20449;-81
2024/03/27 04:04:19;;;;;;;7.45;5.78;;;;;;;5.81;76.02;97339.22;2526246;28;20441;-80
2024/03/27 04:05:32;;;;;;;7.90;5.03;;;;;;;5.82;75.93;97344.31;2473761;29;20056;-80
2024/03/27 04:06:45;;;;;;;10.30;4.82;;;;;;;5.82;75.84;97335.72;2480477;29;20023;-80
2024/03/27 04:07:59;;;;;;;8.88;7.20;;;;;;;5.83;76.12;97327.03;2477124;29;20355;-80
2024/03/27 04:09:12;;;;;;;6.88;5.25;;;;;;;5.83;76.09;97322.69;2508188;28;20585;-80
2024/03/27 04:10:25;;;;;;;8.88;6.15;;;;;;;5.83;75.91;97311.50;2499482;28;20052;-80
2024/03/27 04:11:38;;;;;;;6.15;4.97;;;;;;;5.85;76.02;97307.13;2499750;28;20040;-80
2024/03/27 04:12:51;;;;;;;5.75;5.18;;;;;;;5.87;75.66;97300.13;2500708;28;20040;-80
2024/03/27 04:14:05;;;;;;;7.47;4.55;;;;;;;5.89;76.25;97308.69;2488209;28;20032;-80
2024/03/27 04:15:18;;;;;;;10.23;6.05;;;;;;;5.90;76.23;97305.16;2463942;28;20032;-80
2024/03/27 04:16:31;;;;;;;8.32;5.53;;;;;;;5.91;76.23;97299.06;2468387;28;20056;-79
2024/03/27 04:17:45;;;;;;;7.38;5.43;;;;;;;5.92;76.12;97299.94;2483443;28;20023;-80
2024/03/27 04:18:58;;;;;;;11.52;7.55;;;;;;;5.92;76.04;97299.94;2505071;28;20041;-80
2024/03/27 04:20:12;;;;;;;6.47;5.00;;;;;;;5.92;76.28;97295.59;2475673;28;20115;-80
2024/03/27 04:21:25;;;;;;;8.18;5.40;;;;;;;5.92;76.52;97299.94;2477809;29;20036;-81
2024/03/27 04:22:39;;;;;;;8.27;5.78;;;;;;;5.91;76.30;97291.31;2483253;29;20111;-81
2024/03/27 04:23:52;;;;;;;5.97;4.63;;;;;;;5.92;76.36;97295.59;2480980;29;20055;-80
2024/03/27 04:25:05;;;;;;;6.95;5.70;;;;;;;5.91;76.01;97296.50;2470719;28;20028;-81
2024/03/27 04:26:19;;;;;;;11.40;5.82;;;;;;;5.91;76.33;97296.50;2507653;28;20064;-79
2024/03/27 04:27:32;;;;;;;6.85;5.60;;;;;;;5.90;76.37;97287.06;2473788;28;20044;-81
2024/03/27 04:28:45;;;;;;;9.30;5.45;;;;;;;5.88;76.31;97279.34;2473530;28;20058;-82
2024/03/27 04:29:58;;;;;;;7.65;4.88;;;;;;;5.88;76.38;97279.34;2474380;28;20035;-80
2024/03/27 04:31:12;;;;;;;8.15;5.65;;;;;;;5.88;76.28;97276.75;2477428;28;20119;-82
2024/03/27 04:32:26;;;;;;;9.35;6.80;;;;;;;5.89;76.32;97278.47;2474564;28;20032;-81
2024/03/27 04:33:39;;;;;;;9.55;5.80;;;;;;;5.91;76.22;97280.97;2467411;28;20028;-79
2024/03/27 04:34:52;;;;;;;5.95;4.85;;;;;;;5.91;76.31;97270.59;2467750;28;20058;-81
2024/03/27 04:36:06;;;;;;;6.28;5.10;;;;;;;5.94;76.29;97267.94;2470392;28;20064;-80
2024/03/27 04:37:19;;;;;;;7.68;5.30;;;;;;;5.96;76.01;97273.88;2467269;28;20039;-81
2024/03/27 04:38:33;;;;;;;10.63;5.88;;;;;;;5.97;76.05;97278.16;2469941;28;20028;-81
2024/03/27 04:39:46;;;;;;;9.80;5.65;;;;;;;5.97;76.35;97277.31;2494002;28;20030;-82
2024/03/27 04:41:01;;;;;;;7.35;5.75;;;;;;;5.99;76.51;97285.84;2482689;28;20032;-81
2024/03/27 04:42:16;;;;;;;10.05;7.63;;;;;;;6.00;76.39;97288.38;2471894;28;20512;-81
2024/03/27 04:43:29;;;;;;;14.65;5.90;;;;;;;6.03;76.45;97289.97;2478620;29;20028;-82
2024/03/27 04:44:42;;;;;;;9.68;6.70;;;;;;;6.02;76.27;97294.31;2477674;29;20055;-82
2024/03/27 04:45:55;;;;;;;5.70;5.00;;;;;;;6.00;76.43;97300.47;2478695;28;20038;-82
2024/03/27 04:47:09;;;;;;;7.28;5.40;;;;;;;6.00;76.26;97308.25;2483484;29;20118;-81
2024/03/27 04:48:22;;;;;;;7.68;5.35;;;;;;;5.98;76.13;97310.88;2476165;28;20020;-81
2024/03/27 04:49:36;;;;;;;11.98;5.72;;;;;;;5.98;76.32;97310.88;2488367;28;20021;-81
2024/03/27 04:50:49;;;;;;;7.95;5.40;;;;;;;5.97;76.44;97311.81;2506396;28;20078;-82
2024/03/27 04:52:02;;;;;;;8.45;5.20;;;;;;;5.98;76.50;97310.06;2483741;29;20036;-82
2024/03/27 04:53:16;;;;;;;8.70;4.72;;;;;;;5.97;76.65;97316.97;2468429;28;20024;-83
2024/03/27 04:54:30;;;;;;;17.05;5.05;;;;;;;5.96;76.42;97310.09;2463626;28;20490;-81
2024/03/27 04:55:43;;;;;;;7.15;5.10;;;;;;;5.96;76.44;97306.69;2475582;28;20032;-83
2024/03/27 04:56:56;;;;;;;6.72;5.20;;;;;;;5.94;76.48;97306.75;2483528;28;20065;-82
2024/03/27 04:58:10;;;;;;;11.32;5.95;;;;;;;5.92;76.51;97299.94;2469571;28;20055;-82
2024/03/27 04:59:24;;;;;;;9.07;5.72;;;;;;;5.91;76.55;97293.91;2502634;28;20034;-81
2024/03/27 05:00:37;;;;;;;6.43;5.35;;;;;;;5.90;76.52;97292.22;2489854;28;20024;-81
2024/03/27 05:01:50;;;;;;;10.27;6.20;;;;;;;5.90;76.63;97287.88;2506323;28;20028;-82
2024/03/27 05:03:04;;;;;;;8.90;6.18;;;;;;;5.91;76.76;97286.13;2483819;29;20035;-81
2024/03/27 05:04:17;;;;;;;7.95;4.70;;;;;;;5.92;76.83;97279.25;2478608;29;20038;-81
2024/03/27 05:05:30;;;;;;;11.23;6.60;;;;;;;5.90;76.81;97274.94;2475447;29;20024;-82
2024/03/27 05:06:43;;;;;;;7.50;6.60;;;;;;;5.89;76.54;97275.03;2474636;28;20035;-82
2024/03/27 05:07:56;;;;;;;9.88;4.45;;;;;;;5.87;76.49;97272.50;2469435;28;20032;-82
2024/03/27 05:09:11;;;;;;;11.45;4.97;;;;;;;5.86;76.63;97272.56;2465500;28;20032;-81
2024/03/27 05:10:24;;;;;;;8.20;6.63;;;;;;;5.83;76.56;97273.53;2518920;28;20502;-82
2024/03/27 05:11:38;;;;;;;8.88;5.97;;;;;;;5.84;76.78;97276.97;2480497;29;20035;-83
2024/03/27 05:12:51;;;;;;;5.63;4.05;;;;;;;5.85;76.93;97273.47;2477658;29;20024;-81
2024/03/27 05:14:05;;;;;;;9.25;6.25;;;;;;;5.86;76.84;97269.97;2487783;29;20508;-80
2024/03/27 05:15:18;;;;;;;9.20;6.43;;;;;;;5.86;76.90;97267.38;2472966;29;20032;-80
2024/03/27 05:16:33;;;;;;;7.68;5.78;;;;;;;5.85;76.79;97268.31;2461619;28;20036;-81
2024/03/27 05:17:46;;;;;;;8.77;4.90;;;;;;;5.85;76.88;97278.66;2462269;28;20034;-81
2024/03/27 05:19:00;;;;;;;7.53;4.68;;;;;;;5.86;76.81;97275.16;2470257;28;20521;-80
2024/03/27 05:20:17;;;;;;;13.48;5.65;;;;;;;5.87;76.88;97292.38;2477639;28;20122;-80
2024/03/27 05:21:32;;;;;;;12.98;6.15;;;;;;;5.86;76.81;97288.09;2496850;28;20028;-81
2024/03/27 05:22:45;;;;;;;6.32;4.90;;;;;;;5.84;76.93;97280.41;2490285;28;20033;-81
2024/03/27 05:23:58;;;;;;;6.95;5.93;;;;;;;5.85;76.77;97286.41;2486207;28;20050;-82
2024/03/27 05:25:13;;;;;;;9.40;6.05;;;;;;;5.85;76.66;97292.44;2482943;29;20058;-81
2024/03/27 05:26:26;;;;;;;21.67;10.32;;;;;;;5.85;76.54;97302.78;2483937;29;20074;-82
2024/03/27 05:27:39;;;;;;;19.33;12.73;;;;;;;5.83;76.81;97302.00;2484811;28;20472;-81
2024/03/27 05:28:53;;;;;;;22.38;11.25;;;;;;;5.83;76.88;97306.34;2496925;28;20032;-81
2024/03/27 05:30:07;;;;;;;12.43;7.03;;;;;;;5.84;76.95;97311.47;2522590;28;20034;-81
2024/03/27 05:31:21;;;;;;;9.43;6.80;;;;;;;5.84;77.00;97308.03;2471775;28;20040;-82
2024/03/27 05:32:34;;;;;;;7.72;5.80;;;;;;;5.84;77.05;97315.81;2473156;28;20497;-80
2024/03/27 05:33:47;;;;;;;6.97;5.22;;;;;;;5.86;76.92;97325.19;2504272;28;20045;-81
2024/03/27 05:35:00;;;;;;;11.07;5.00;;;;;;;5.89;76.66;97329.38;2501551;28;20028;-80
2024/03/27 05:36:14;;;;;;;12.45;6.20;;;;;;;5.91;76.98;97322.38;2488368;29;20057;-80
2024/03/27 05:37:27;;;;;;;8.35;6.38;;;;;;;5.93;76.81;97314.56;2483944;29;20093;-80
2024/03/27 05:38:41;;;;;;;5.45;4.93;;;;;;;5.94;76.77;97313.66;2475060;28;20078;-82
2024/03/27 05:39:54;;;;;;;8.73;4.88;;;;;;;5.95;76.76;97311.03;2474310;28;20036;-82
2024/03/27 05:41:07;;;;;;;7.70;5.30;;;;;;;5.95;76.81;97321.38;2474956;28;20058;-82
2024/03/27 05:42:21;;;;;;;6.10;4.55;;;;;;;5.95;76.94;97323.97;2477705;28;20062;-82
2024/03/27 05:43:35;;;;;;;7.28;5.75;;;;;;;5.96;76.87;97322.22;2482040;29;20100;-81
2024/03/27 05:44:49;;;;;;;9.63;5.90;;;;;;;5.97;76.81;97322.16;2465515;28;20031;-80
2024/03/27 05:46:02;;;;;;;6.22;4.95;;;;;;;5.97;76.68;97319.56;2470570;28;20026;-80
2024/03/27 05:47:15;;;;;;;12.65;4.70;;;;;;;5.96;76.89;97307.50;2467123;28;20032;-80
2024/03/27 05:48:29;;;;;;;9.23;5.85;;;;;;;5.96;76.67;97302.34;2462165;28;20028;-81
2024/03/27 05:49:42;;;;;;;8.55;5.18;;;;;;;5.96;76.66;97304.94;2467432;28;20028;-81